Airfield :
LOGIN :

Register | Disclaimer

   EN    FR    IT 

 










Legend :    VFR   Marginal VFR   IFR   Intensive IFR   Very Intensive IFR
Visi :
Ceiling :
>= 8 km
>= 3000ft
5 to 8 km
1000 to 3000 ft
1500m to 5 km
500 to 1000 ft
800 to 1500m
200 to 500 ft
< 800m
< 200 ft
Symbols :   Thunderstorms  Fog  Heavy snow  Heavy precipitations  Wind > 20 kt
SIGMETs :     Misc.  Thunderstorms  Icing  Turbulence  Mountain Waves  Volcanic Ashes






- Airport Elevation : 33 ft
- IATA code : PLQ


EYPA - Palanga

CURRENT METAR :
  • 051750Z 24011G21KT 200V280 9999 BKN016 07/04 Q1011 R19/0///95

EXPIRED METARs :
  • 051720Z 23010G21KT 200V270 9999 OVC017 07/04 Q1010 R19/0///95
  • 051650Z 24009G20KT 180V290 9999 OVC015 07/04 Q1011 R19/0///95
  • 051620Z 24009G19KT 190V280 9999 OVC017 07/04 Q1011 R19/0///95
  • 051550Z 24010KT 200V290 9999 OVC017 07/04 Q1011 R19/0///95
  • 051520Z 25009KT 190V310 9999 OVC016 07/04 Q1012 R19/0///95
  • 051450Z 24008KT 190V290 9999 OVC013 07/04 Q1012 R19/0///95

TAF TAF EYPA
Valid from the 05 at 18:00 until the 06 at 18:00 UTC


051700Z 0518/0618 24012G26KT 6000 BKN015
TEMPO 0603/0610 24022G36KT
TEMPO 0610/0618 24022G36KT RA OVC010



MET'MAP, your aeronautical weather chart ! - Copyright ORBIFLY December 2007 - Disclaimer

ORBIFLY MET'MAP TEAM :

Programming & Development : Alexandra Zaïnal
Concept & original design : Baudouin d'Aumeries
Assistance for programming : Marc-Olivier Méhu
Technical & hardware support : Manuel Goepfert

Contact : metmap@orbifly.com




SOURCES & CREDITS :

   NOAA